sensor_id;sensor_type;location;lat;lon;timestamp;pressure;altitude;pressure_sealevel;temperature;humidity
57594;BME280;43423;46.510;6.686;2023-05-21T00:00:48;95981.84;;;13.15;86.67
57594;BME280;43423;46.510;6.686;2023-05-21T00:03:35;95978.09;;;13.12;86.60
57594;BME280;43423;46.510;6.686;2023-05-21T00:06:01;95980.59;;;13.16;86.85
57594;BME280;43423;46.510;6.686;2023-05-21T00:08:27;95979.31;;;13.17;87.03
57594;BME280;43423;46.510;6.686;2023-05-21T00:10:53;95972.56;;;13.24;86.95
57594;BME280;43423;46.510;6.686;2023-05-21T00:13:19;95978.81;;;13.19;87.27
57594;BME280;43423;46.510;6.686;2023-05-21T00:15:44;95967.34;;;13.03;88.01
57594;BME280;43423;46.510;6.686;2023-05-21T00:18:10;95967.59;;;13.05;86.40
57594;BME280;43423;46.510;6.686;2023-05-21T00:20:36;95976.84;;;13.13;86.30
57594;BME280;43423;46.510;6.686;2023-05-21T00:23:01;95973.34;;;13.13;87.46
57594;BME280;43423;46.510;6.686;2023-05-21T00:25:28;95971.84;;;13.01;88.68
57594;BME280;43423;46.510;6.686;2023-05-21T00:27:54;95966.84;;;12.99;88.51
57594;BME280;43423;46.510;6.686;2023-05-21T00:30:20;95964.34;;;12.96;88.78
57594;BME280;43423;46.510;6.686;2023-05-21T00:32:46;95968.34;;;12.95;88.77
57594;BME280;43423;46.510;6.686;2023-05-21T00:35:11;95966.34;;;12.95;88.83
57594;BME280;43423;46.510;6.686;2023-05-21T00:37:37;95955.59;;;12.86;88.67
57594;BME280;43423;46.510;6.686;2023-05-21T00:40:03;95963.63;;;12.84;89.33
57594;BME280;43423;46.510;6.686;2023-05-21T00:42:31;95951.84;;;12.83;88.79
57594;BME280;43423;46.510;6.686;2023-05-21T00:44:56;95960.09;;;12.89;88.23
57594;BME280;43423;46.510;6.686;2023-05-21T00:47:22;95946.78;;;12.93;87.90
57594;BME280;43423;46.510;6.686;2023-05-21T00:49:49;95944.75;;;12.99;87.35
57594;BME280;43423;46.510;6.686;2023-05-21T00:52:17;95942.75;;;13.00;87.47
57594;BME280;43423;46.510;6.686;2023-05-21T00:54:50;95950.03;;;12.97;87.96
57594;BME280;43423;46.510;6.686;2023-05-21T00:57:17;95951.53;;;12.98;87.57
57594;BME280;43423;46.510;6.686;2023-05-21T00:59:46;95950.53;;;13.01;88.03
57594;BME280;43423;46.510;6.686;2023-05-21T01:02:12;95953.56;;;12.92;88.03
57594;BME280;43423;46.510;6.686;2023-05-21T01:04:38;95952.53;;;12.95;88.42
57594;BME280;43423;46.510;6.686;2023-05-21T01:07:04;95946.28;;;12.95;88.98
57594;BME280;43423;46.510;6.686;2023-05-21T01:09:30;95946.31;;;12.83;88.71
57594;BME280;43423;46.510;6.686;2023-05-21T01:11:57;95935.78;;;12.82;89.16
57594;BME280;43423;46.510;6.686;2023-05-21T01:14:25;95938.31;;;12.74;89.06
57594;BME280;43423;46.510;6.686;2023-05-21T01:16:51;95945.59;;;12.72;89.07
57594;BME280;43423;46.510;6.686;2023-05-21T01:19:19;95940.59;;;12.59;88.51
57594;BME280;43423;46.510;6.686;2023-05-21T01:21:48;95946.34;;;12.61;89.41
57594;BME280;43423;46.510;6.686;2023-05-21T01:24:15;95949.91;;;12.56;90.45
57594;BME280;43423;46.510;6.686;2023-05-21T01:26:41;95950.13;;;12.52;90.75
57594;BME280;43423;46.510;6.686;2023-05-21T01:29:08;95948.41;;;12.49;88.74
57594;BME280;43423;46.510;6.686;2023-05-21T01:34:17;95961.44;;;12.43;89.96
57594;BME280;43423;46.510;6.686;2023-05-21T01:36:52;95965.22;;;12.40;90.28
57594;BME280;43423;46.510;6.686;2023-05-21T01:39:22;95963.94;;;12.36;89.78
57594;BME280;43423;46.510;6.686;2023-05-21T01:41:52;95965.94;;;12.35;90.11
57594;BME280;43423;46.510;6.686;2023-05-21T01:44:19;95960.44;;;12.29;90.24
57594;BME280;43423;46.510;6.686;2023-05-21T01:46:46;95954.91;;;12.35;90.40
57594;BME280;43423;46.510;6.686;2023-05-21T01:49:12;95964.69;;;12.36;90.50
57594;BME280;43423;46.510;6.686;2023-05-21T01:51:38;95959.69;;;12.29;90.30
57594;BME280;43423;46.510;6.686;2023-05-21T01:54:04;95966.94;;;12.26;89.62
57594;BME280;43423;46.510;6.686;2023-05-21T01:56:30;95955.69;;;12.19;90.47
57594;BME280;43423;46.510;6.686;2023-05-21T01:58:58;95961.19;;;12.24;90.05
57594;BME280;43423;46.510;6.686;2023-05-21T02:01:25;95955.94;;;12.26;89.84
57594;BME280;43423;46.510;6.686;2023-05-21T02:03:51;95957.66;;;12.24;90.40
57594;BME280;43423;46.510;6.686;2023-05-21T02:06:17;95952.94;;;12.24;89.30
57594;BME280;43423;46.510;6.686;2023-05-21T02:08:42;95962.19;;;12.21;90.46
57594;BME280;43423;46.510;6.686;2023-05-21T02:11:10;95960.19;;;12.22;90.01
57594;BME280;43423;46.510;6.686;2023-05-21T02:13:35;95947.66;;;12.21;89.95
57594;BME280;43423;46.510;6.686;2023-05-21T02:16:06;95959.94;;;12.37;89.42
57594;BME280;43423;46.510;6.686;2023-05-21T02:18:45;95961.44;;;12.38;89.10
57594;BME280;43423;46.510;6.686;2023-05-21T02:21:12;95963.69;;;12.39;88.66
57594;BME280;43423;46.510;6.686;2023-05-21T02:23:37;95953.66;;;12.42;88.79
57594;BME280;43423;46.510;6.686;2023-05-21T02:26:03;95949.41;;;12.35;88.97
57594;BME280;43423;46.510;6.686;2023-05-21T02:28:29;95955.16;;;12.37;88.79
57594;BME280;43423;46.510;6.686;2023-05-21T02:30:55;95954.19;;;12.40;89.16
57594;BME280;43423;46.510;6.686;2023-05-21T02:33:21;95961.19;;;12.41;89.15
57594;BME280;43423;46.510;6.686;2023-05-21T02:35:47;95947.63;;;12.32;89.16
57594;BME280;43423;46.510;6.686;2023-05-21T02:38:13;95953.94;;;12.33;89.47
57594;BME280;43423;46.510;6.686;2023-05-21T02:40:39;95941.91;;;12.24;89.87
57594;BME280;43423;46.510;6.686;2023-05-21T02:43:04;95945.41;;;12.25;89.93
57594;BME280;43423;46.510;6.686;2023-05-21T02:45:30;95952.94;;;12.24;89.56
57594;BME280;43423;46.510;6.686;2023-05-21T02:47:56;95948.91;;;12.20;89.20
57594;BME280;43423;46.510;6.686;2023-05-21T02:50:22;95948.16;;;12.14;89.94
57594;BME280;43423;46.510;6.686;2023-05-21T02:52:47;95948.91;;;12.14;90.26
57594;BME280;43423;46.510;6.686;2023-05-21T02:55:13;95947.41;;;12.08;91.49
57594;BME280;43423;46.510;6.686;2023-05-21T02:57:39;95954.41;;;12.03;91.01
57594;BME280;43423;46.510;6.686;2023-05-21T03:00:05;95948.66;;;11.95;91.17
57594;BME280;43423;46.510;6.686;2023-05-21T03:02:32;95950.16;;;11.96;92.06
57594;BME280;43423;46.510;6.686;2023-05-21T03:04:58;95950.41;;;11.93;92.66
57594;BME280;43423;46.510;6.686;2023-05-21T03:07:25;95935.38;;;11.88;93.13
57594;BME280;43423;46.510;6.686;2023-05-21T03:09:50;95943.63;;;11.83;93.36
57594;BME280;43423;46.510;6.686;2023-05-21T03:12:16;95945.63;;;11.82;92.82
57594;BME280;43423;46.510;6.686;2023-05-21T03:14:42;95933.56;;;11.74;93.35
57594;BME280;43423;46.510;6.686;2023-05-21T03:17:08;95942.88;;;11.99;91.82
57594;BME280;43423;46.510;6.686;2023-05-21T03:19:39;95945.38;;;11.91;92.47
57594;BME280;43423;46.510;6.686;2023-05-21T03:22:06;95941.38;;;11.92;92.71
57594;BME280;43423;46.510;6.686;2023-05-21T03:24:32;95941.84;;;11.80;92.97
57594;BME280;43423;46.510;6.686;2023-05-21T03:26:58;95939.63;;;11.89;92.81
57594;BME280;43423;46.510;6.686;2023-05-21T03:29:26;95943.38;;;11.86;92.05
57594;BME280;43423;46.510;6.686;2023-05-21T03:31:52;95940.63;;;11.86;92.33
57594;BME280;43423;46.510;6.686;2023-05-21T03:34:18;95937.81;;;11.75;93.04
57594;BME280;43423;46.510;6.686;2023-05-21T03:36:45;95946.34;;;11.77;93.61
57594;BME280;43423;46.510;6.686;2023-05-21T03:39:10;95951.59;;;11.75;93.32
57594;BME280;43423;46.510;6.686;2023-05-21T03:41:36;95949.84;;;11.72;93.70
57594;BME280;43423;46.510;6.686;2023-05-21T03:44:02;95946.31;;;11.66;93.32
57594;BME280;43423;46.510;6.686;2023-05-21T03:46:27;95954.06;;;11.67;93.11
57594;BME280;43423;46.510;6.686;2023-05-21T03:48:53;95947.31;;;11.68;93.55
57594;BME280;43423;46.510;6.686;2023-05-21T03:51:18;95956.84;;;11.73;92.88
57594;BME280;43423;46.510;6.686;2023-05-21T03:53:44;95956.88;;;11.79;92.31
57594;BME280;43423;46.510;6.686;2023-05-21T03:56:10;95948.09;;;11.74;92.22
57594;BME280;43423;46.510;6.686;2023-05-21T03:58:36;95950.41;;;11.87;92.43
57594;BME280;43423;46.510;6.686;2023-05-21T04:01:01;95957.66;;;11.90;92.33
57594;BME280;43423;46.510;6.686;2023-05-21T04:03:29;95955.66;;;11.85;92.92
57594;BME280;43423;46.510;6.686;2023-05-21T04:05:56;95961.41;;;11.82;92.85
57594;BME280;43423;46.510;6.686;2023-05-21T04:08:22;95962.66;;;11.86;92.66
57594;BME280;43423;46.510;6.686;2023-05-21T04:10:48;95958.66;;;11.87;93.64
57594;BME280;43423;46.510;6.686;2023-05-21T04:13:13;95959.16;;;11.80;93.29
57594;BME280;43423;46.510;6.686;2023-05-21T04:15:39;95961.16;;;11.85;93.36
57594;BME280;43423;46.510;6.686;2023-05-21T04:18:04;95976.16;;;11.84;93.62
57594;BME280;43423;46.510;6.686;2023-05-21T04:20:31;95970.16;;;11.91;93.69
57594;BME280;43423;46.510;6.686;2023-05-21T04:22:56;95983.22;;;12.02;92.79
57594;BME280;43423;46.510;6.686;2023-05-21T04:25:22;95964.69;;;11.97;92.44
57594;BME280;43423;46.510;6.686;2023-05-21T04:27:48;95993.97;;;12.00;92.58
57594;BME280;43423;46.510;6.686;2023-05-21T04:30:14;95998.25;;;11.95;93.92
57594;BME280;43423;46.510;6.686;2023-05-21T04:32:40;95990.97;;;11.92;94.50
57594;BME280;43423;46.510;6.686;2023-05-21T04:35:05;95993.00;;;12.03;92.90
57594;BME280;43423;46.510;6.686;2023-05-21T04:37:31;95992.25;;;12.02;93.50
57594;BME280;43423;46.510;6.686;2023-05-21T04:39:59;95997.25;;;11.98;93.44
57594;BME280;43423;46.510;6.686;2023-05-21T04:42:28;96005.00;;;11.94;94.18
57594;BME280;43423;46.510;6.686;2023-05-21T04:44:54;96011.75;;;11.99;94.85
57594;BME280;43423;46.510;6.686;2023-05-21T04:47:20;96009.53;;;12.03;94.30
57594;BME280;43423;46.510;6.686;2023-05-21T04:49:45;96014.53;;;12.05;92.92
57594;BME280;43423;46.510;6.686;2023-05-21T04:52:12;96009.28;;;12.07;91.78
57594;BME280;43423;46.510;6.686;2023-05-21T04:54:37;96014.28;;;12.14;91.43
57594;BME280;43423;46.510;6.686;2023-05-21T04:57:06;96016.31;;;12.19;90.98
57594;BME280;43423;46.510;6.686;2023-05-21T04:59:32;96020.56;;;12.31;90.57
57594;BME280;43423;46.510;6.686;2023-05-21T05:01:58;96022.59;;;12.36;90.63
57594;BME280;43423;46.510;6.686;2023-05-21T05:04:23;96015.06;;;12.37;90.17
57594;BME280;43423;46.510;6.686;2023-05-21T05:06:49;96023.31;;;12.48;90.60
57594;BME280;43423;46.510;6.686;2023-05-21T05:09:16;96024.34;;;12.56;90.57
57594;BME280;43423;46.510;6.686;2023-05-21T05:11:41;96009.56;;;12.42;91.22
57594;BME280;43423;46.510;6.686;2023-05-21T05:14:07;96026.88;;;12.48;91.68
57594;BME280;43423;46.510;6.686;2023-05-21T05:16:32;96022.09;;;12.49;92.22
57594;BME280;43423;46.510;6.686;2023-05-21T05:18:59;96026.34;;;12.50;92.04
57594;BME280;43423;46.510;6.686;2023-05-21T05:21:25;96025.09;;;12.45;92.33
57594;BME280;43423;46.510;6.686;2023-05-21T05:23:51;96026.59;;;12.46;91.87
57594;BME280;43423;46.510;6.686;2023-05-21T05:26:16;96030.84;;;12.47;92.40
57594;BME280;43423;46.510;6.686;2023-05-21T05:28:42;96033.13;;;12.66;91.36
57594;BME280;43423;46.510;6.686;2023-05-21T05:31:07;96024.84;;;12.66;92.00
57594;BME280;43423;46.510;6.686;2023-05-21T05:33:33;96025.84;;;12.74;91.67
57594;BME280;43423;46.510;6.686;2023-05-21T05:35:59;96024.59;;;12.75;92.10
57594;BME280;43423;46.510;6.686;2023-05-21T05:38:25;96028.84;;;12.81;91.93
57594;BME280;43423;46.510;6.686;2023-05-21T05:40:52;96022.06;;;12.71;91.39
57594;BME280;43423;46.510;6.686;2023-05-21T05:43:17;96023.09;;;12.74;91.87
57594;BME280;43423;46.510;6.686;2023-05-21T05:45:43;96029.59;;;12.76;91.92
57594;BME280;43423;46.510;6.686;2023-05-21T05:48:08;96033.34;;;12.79;92.12
57594;BME280;43423;46.510;6.686;2023-05-21T05:50:34;96027.06;;;12.84;90.94
57594;BME280;43423;46.510;6.686;2023-05-21T05:52:59;96026.31;;;12.89;90.60
57594;BME280;43423;46.510;6.686;2023-05-21T05:55:25;96031.34;;;12.91;90.83
57594;BME280;43423;46.510;6.686;2023-05-21T05:57:51;96025.53;;;12.94;91.55
57594;BME280;43423;46.510;6.686;2023-05-21T06:00:17;96020.78;;;12.95;91.33
57594;BME280;43423;46.510;6.686;2023-05-21T06:02:42;96023.03;;;13.02;91.18
57594;BME280;43423;46.510;6.686;2023-05-21T06:05:08;96031.31;;;13.13;90.84
57594;BME280;43423;46.510;6.686;2023-05-21T06:07:37;96024.00;;;13.27;89.65
57594;BME280;43423;46.510;6.686;2023-05-21T06:10:05;96021.22;;;13.38;88.62
57594;BME280;43423;46.510;6.686;2023-05-21T06:12:30;96029.94;;;13.48;89.37
57594;BME280;43423;46.510;6.686;2023-05-21T06:14:56;96029.16;;;13.58;88.94
57594;BME280;43423;46.510;6.686;2023-05-21T06:17:21;96021.16;;;13.49;89.79
57594;BME280;43423;46.510;6.686;2023-05-21T06:19:47;96034.44;;;13.56;89.84
57594;BME280;43423;46.510;6.686;2023-05-21T06:22:12;96037.91;;;13.68;88.79
57594;BME280;43423;46.510;6.686;2023-05-21T06:24:38;96023.09;;;13.65;87.86
57594;BME280;43423;46.510;6.686;2023-05-21T06:27:03;96035.44;;;13.59;89.63
57594;BME280;43423;46.510;6.686;2023-05-21T06:29:29;96033.47;;;13.48;90.69
57594;BME280;43423;46.510;6.686;2023-05-21T06:31:55;96032.19;;;13.49;90.72
57594;BME280;43423;46.510;6.686;2023-05-21T06:34:21;96034.03;;;13.30;90.28
57594;BME280;43423;46.510;6.686;2023-05-21T06:36:46;96029.50;;;13.32;90.06
57594;BME280;43423;46.510;6.686;2023-05-21T06:39:12;96033.28;;;13.24;90.54
57594;BME280;43423;46.510;6.686;2023-05-21T06:41:38;96038.75;;;13.40;89.88
57594;BME280;43423;46.510;6.686;2023-05-21T06:44:03;96035.78;;;13.33;90.93
57594;BME280;43423;46.510;6.686;2023-05-21T06:46:30;96037.72;;;13.49;90.76
57594;BME280;43423;46.510;6.686;2023-05-21T06:48:55;96041.44;;;13.63;89.58
57594;BME280;43423;46.510;6.686;2023-05-21T06:51:21;96033.22;;;13.52;90.83
57594;BME280;43423;46.510;6.686;2023-05-21T06:53:47;96034.69;;;13.58;90.94
57594;BME280;43423;46.510;6.686;2023-05-21T06:56:12;96034.66;;;13.69;90.46
57594;BME280;43423;46.510;6.686;2023-05-21T06:58:38;96040.09;;;13.81;88.81
57594;BME280;43423;46.510;6.686;2023-05-21T07:01:03;96033.59;;;13.78;89.31
57594;BME280;43423;46.510;6.686;2023-05-21T07:03:29;96030.53;;;13.87;89.43
57594;BME280;43423;46.510;6.686;2023-05-21T07:05:55;96030.28;;;13.85;88.79
57594;BME280;43423;46.510;6.686;2023-05-21T07:08:21;96031.25;;;13.93;88.29
57594;BME280;43423;46.510;6.686;2023-05-21T07:10:47;96035.53;;;13.94;88.31
57594;BME280;43423;46.510;6.686;2023-05-21T07:13:14;96036.00;;;13.99;87.75
57594;BME280;43423;46.510;6.686;2023-05-21T07:15:39;96023.69;;;14.00;88.29
57594;BME280;43423;46.510;6.686;2023-05-21T07:18:05;96022.34;;;14.12;87.01
57594;BME280;43423;46.510;6.686;2023-05-21T07:20:31;96027.22;;;14.36;85.65
57594;BME280;43423;46.510;6.686;2023-05-21T07:22:56;96019.63;;;14.42;86.93
57594;BME280;43423;46.510;6.686;2023-05-21T07:25:22;96028.16;;;14.44;86.20
57594;BME280;43423;46.510;6.686;2023-05-21T07:27:48;96026.94;;;14.39;86.06
57594;BME280;43423;46.510;6.686;2023-05-21T07:30:13;96040.59;;;14.26;86.42
57594;BME280;43423;46.510;6.686;2023-05-21T07:32:39;96040.81;;;14.34;86.33
57594;BME280;43423;46.510;6.686;2023-05-21T07:35:05;96023.88;;;14.43;86.22
57594;BME280;43423;46.510;6.686;2023-05-21T07:37:31;96027.06;;;14.58;85.11
57594;BME280;43423;46.510;6.686;2023-05-21T07:39:57;96029.28;;;14.65;85.26
57594;BME280;43423;46.510;6.686;2023-05-21T07:42:25;96034.97;;;14.78;84.64
57594;BME280;43423;46.510;6.686;2023-05-21T07:44:51;96019.94;;;14.68;85.07
57594;BME280;43423;46.510;6.686;2023-05-21T07:47:17;96020.50;;;14.61;84.23
57594;BME280;43423;46.510;6.686;2023-05-21T07:49:43;96027.00;;;14.69;84.98
57594;BME280;43423;46.510;6.686;2023-05-21T07:52:08;96027.41;;;14.43;85.05
57594;BME280;43423;46.510;6.686;2023-05-21T07:54:34;96011.88;;;14.35;84.84
57594;BME280;43423;46.510;6.686;2023-05-21T07:57:00;96024.44;;;14.36;85.43
57594;BME280;43423;46.510;6.686;2023-05-21T07:59:27;96021.88;;;14.43;85.48
57594;BME280;43423;46.510;6.686;2023-05-21T08:01:53;96015.03;;;14.56;85.35
57594;BME280;43423;46.510;6.686;2023-05-21T08:04:18;96025.16;;;14.77;85.97
57594;BME280;43423;46.510;6.686;2023-05-21T08:06:44;96024.34;;;14.52;83.38
57594;BME280;43423;46.510;6.686;2023-05-21T08:09:09;96017.63;;;14.37;85.13
57594;BME280;43423;46.510;6.686;2023-05-21T08:11:36;96026.13;;;14.50;85.79
57594;BME280;43423;46.510;6.686;2023-05-21T08:14:02;96031.75;;;14.69;84.61
57594;BME280;43423;46.510;6.686;2023-05-21T08:16:27;96029.59;;;14.86;83.04
57594;BME280;43423;46.510;6.686;2023-05-21T08:18:53;96025.63;;;14.82;84.15
57594;BME280;43423;46.510;6.686;2023-05-21T08:21:19;96037.66;;;14.84;82.51
57594;BME280;43423;46.510;6.686;2023-05-21T08:23:44;96031.66;;;14.80;81.48
57594;BME280;43423;46.510;6.686;2023-05-21T08:26:10;96027.63;;;14.81;82.56
57594;BME280;43423;46.510;6.686;2023-05-21T08:28:39;96042.69;;;14.86;82.74
57594;BME280;43423;46.510;6.686;2023-05-21T08:31:04;96042.19;;;14.87;82.30
57594;BME280;43423;46.510;6.686;2023-05-21T08:33:30;96033.13;;;14.87;82.05
57594;BME280;43423;46.510;6.686;2023-05-21T08:35:55;96024.31;;;15.13;82.27
57594;BME280;43423;46.510;6.686;2023-05-21T08:38:21;96037.28;;;15.23;82.56
57594;BME280;43423;46.510;6.686;2023-05-21T08:40:48;96028.88;;;15.34;81.19
57594;BME280;43423;46.510;6.686;2023-05-21T08:43:16;96024.66;;;15.28;80.82
57594;BME280;43423;46.510;6.686;2023-05-21T08:45:53;96019.38;;;15.24;80.83
57594;BME280;43423;46.510;6.686;2023-05-21T08:48:21;96029.44;;;15.27;79.59
57594;BME280;43423;46.510;6.686;2023-05-21T08:50:49;96037.69;;;15.33;80.26
57594;BME280;43423;46.510;6.686;2023-05-21T08:53:15;96037.69;;;15.33;79.77
57594;BME280;43423;46.510;6.686;2023-05-21T08:55:41;96025.00;;;15.43;80.40
57594;BME280;43423;46.510;6.686;2023-05-21T08:58:07;96026.66;;;15.52;79.92
57594;BME280;43423;46.510;6.686;2023-05-21T09:00:34;96030.13;;;15.33;79.21
57594;BME280;43423;46.510;6.686;2023-05-21T09:03:00;96018.03;;;15.12;79.81
57594;BME280;43423;46.510;6.686;2023-05-21T09:05:27;96027.19;;;15.26;78.81
57594;BME280;43423;46.510;6.686;2023-05-21T09:08:02;96030.78;;;15.21;79.32
57594;BME280;43423;46.510;6.686;2023-05-21T09:10:46;96029.56;;;15.41;79.16
57594;BME280;43423;46.510;6.686;2023-05-21T09:13:14;96027.38;;;15.77;79.50
57594;BME280;43423;46.510;6.686;2023-05-21T09:15:42;96038.53;;;15.71;79.36
57594;BME280;43423;46.510;6.686;2023-05-21T09:18:08;96031.22;;;15.49;78.31
57594;BME280;43423;46.510;6.686;2023-05-21T09:20:34;96034.94;;;15.76;79.29
57594;BME280;43423;46.510;6.686;2023-05-21T09:23:03;96025.06;;;16.00;77.34
57594;BME280;43423;46.510;6.686;2023-05-21T09:25:30;96036.13;;;16.18;77.13
57594;BME280;43423;46.510;6.686;2023-05-21T09:27:56;96042.56;;;16.45;76.71
57594;BME280;43423;46.510;6.686;2023-05-21T09:30:22;96041.06;;;16.44;74.51
57594;BME280;43423;46.510;6.686;2023-05-21T09:32:52;96039.94;;;16.53;74.83
57594;BME280;43423;46.510;6.686;2023-05-21T09:35:19;96040.25;;;16.31;74.96
57594;BME280;43423;46.510;6.686;2023-05-21T09:37:48;96035.72;;;16.46;76.00
57594;BME280;43423;46.510;6.686;2023-05-21T09:40:15;96036.81;;;16.57;74.53
57594;BME280;43423;46.510;6.686;2023-05-21T09:42:46;96039.97;;;16.98;74.25
57594;BME280;43423;46.510;6.686;2023-05-21T09:45:12;96037.16;;;16.85;73.28
57594;BME280;43423;46.510;6.686;2023-05-21T09:47:41;96044.09;;;16.79;72.35
57594;BME280;43423;46.510;6.686;2023-05-21T09:50:09;96040.78;;;16.80;73.74
57594;BME280;43423;46.510;6.686;2023-05-21T09:52:36;96042.50;;;16.96;73.30
57594;BME280;43423;46.510;6.686;2023-05-21T09:55:06;96048.72;;;17.02;72.84
57594;BME280;43423;46.510;6.686;2023-05-21T09:57:42;96054.06;;;17.00;73.43
57594;BME280;43423;46.510;6.686;2023-05-21T10:00:22;96054.38;;;16.97;71.54
57594;BME280;43423;46.510;6.686;2023-05-21T10:02:49;96046.53;;;16.82;71.83
57594;BME280;43423;46.510;6.686;2023-05-21T10:05:19;96057.03;;;16.89;72.17
57594;BME280;43423;46.510;6.686;2023-05-21T10:07:51;96054.59;;;16.99;72.53
57594;BME280;43423;46.510;6.686;2023-05-21T10:10:20;96054.41;;;17.10;71.65
57594;BME280;43423;46.510;6.686;2023-05-21T10:12:50;96053.31;;;17.13;70.76
57594;BME280;43423;46.510;6.686;2023-05-21T10:15:21;96052.81;;;17.28;69.71
57594;BME280;43423;46.510;6.686;2023-05-21T10:17:48;96056.63;;;16.98;71.16
57594;BME280;43423;46.510;6.686;2023-05-21T10:20:15;96053.44;;;17.21;71.72
57594;BME280;43423;46.510;6.686;2023-05-21T10:22:43;96048.00;;;17.28;70.60
57594;BME280;43423;46.510;6.686;2023-05-21T10:25:12;96044.72;;;17.30;69.32
57594;BME280;43423;46.510;6.686;2023-05-21T10:27:38;96042.63;;;16.91;70.20
57594;BME280;43423;46.510;6.686;2023-05-21T10:30:05;96041.84;;;16.90;70.11
57594;BME280;43423;46.510;6.686;2023-05-21T10:32:31;96033.09;;;16.86;71.05
57594;BME280;43423;46.510;6.686;2023-05-21T10:34:58;96043.50;;;16.99;70.25
57594;BME280;43423;46.510;6.686;2023-05-21T10:37:24;96039.31;;;16.92;70.72
57594;BME280;43423;46.510;6.686;2023-05-21T10:39:52;96036.75;;;16.94;73.15
57594;BME280;43423;46.510;6.686;2023-05-21T10:45:25;96036.56;;;17.45;69.90
57594;BME280;43423;46.510;6.686;2023-05-21T10:48:27;96032.19;;;17.37;68.96
57594;BME280;43423;46.510;6.686;2023-05-21T10:51:17;96034.00;;;17.08;69.17
57594;BME280;43423;46.510;6.686;2023-05-21T10:56:31;96026.50;;;17.69;69.99
57594;BME280;43423;46.510;6.686;2023-05-21T10:59:10;96032.72;;;18.01;68.81
57594;BME280;43423;46.510;6.686;2023-05-21T11:01:40;96026.25;;;18.06;67.89
57594;BME280;43423;46.510;6.686;2023-05-21T11:04:06;96034.84;;;18.29;67.30
57594;BME280;43423;46.510;6.686;2023-05-21T11:06:32;96031.53;;;18.31;65.86
57594;BME280;43423;46.510;6.686;2023-05-21T11:09:13;96039.78;;;17.89;63.64
57594;BME280;43423;46.510;6.686;2023-05-21T11:11:40;96038.50;;;17.64;67.02
57594;BME280;43423;46.510;6.686;2023-05-21T11:17:11;96036.38;;;17.70;65.11
57594;BME280;43423;46.510;6.686;2023-05-21T11:19:44;96035.53;;;17.62;65.20
57594;BME280;43423;46.510;6.686;2023-05-21T11:22:25;96035.19;;;17.65;67.01
57594;BME280;43423;46.510;6.686;2023-05-21T11:24:52;96029.09;;;17.93;67.10
57594;BME280;43423;46.510;6.686;2023-05-21T11:27:34;96038.00;;;18.12;65.54
57594;BME280;43423;46.510;6.686;2023-05-21T11:38:09;96021.16;;;17.97;63.33
57594;BME280;43423;46.510;6.686;2023-05-21T11:40:34;96018.66;;;18.07;62.73
57594;BME280;43423;46.510;6.686;2023-05-21T11:43:00;96024.59;;;17.90;63.46
57594;BME280;43423;46.510;6.686;2023-05-21T11:45:28;96032.19;;;17.90;62.11
57594;BME280;43423;46.510;6.686;2023-05-21T11:47:55;96033.34;;;17.68;62.90
57594;BME280;43423;46.510;6.686;2023-05-21T11:50:21;96022.22;;;17.68;65.20
57594;BME280;43423;46.510;6.686;2023-05-21T11:52:48;96027.19;;;17.62;65.06
57594;BME280;43423;46.510;6.686;2023-05-21T11:55:13;96029.19;;;17.88;64.54
57594;BME280;43423;46.510;6.686;2023-05-21T11:57:42;96023.72;;;17.95;63.20
57594;BME280;43423;46.510;6.686;2023-05-21T12:00:13;96027.44;;;18.11;64.54
57594;BME280;43423;46.510;6.686;2023-05-21T12:02:43;96036.31;;;18.09;65.35
57594;BME280;43423;46.510;6.686;2023-05-21T12:05:08;96026.63;;;18.24;64.71
57594;BME280;43423;46.510;6.686;2023-05-21T12:07:34;96020.00;;;18.27;63.98
57594;BME280;43423;46.510;6.686;2023-05-21T12:10:00;96028.34;;;18.27;62.13
57594;BME280;43423;46.510;6.686;2023-05-21T12:12:26;96026.84;;;18.26;63.31
57594;BME280;43423;46.510;6.686;2023-05-21T12:14:53;96021.88;;;18.32;64.33
57594;BME280;43423;46.510;6.686;2023-05-21T12:17:21;96025.72;;;18.42;63.06
57594;BME280;43423;46.510;6.686;2023-05-21T12:19:53;96024.63;;;18.45;62.68
57594;BME280;43423;46.510;6.686;2023-05-21T12:22:20;96023.72;;;18.29;63.28
57594;BME280;43423;46.510;6.686;2023-05-21T12:24:45;96017.13;;;18.19;63.06
57594;BME280;43423;46.510;6.686;2023-05-21T12:27:13;96006.50;;;17.97;63.37
57594;BME280;43423;46.510;6.686;2023-05-21T12:29:45;96013.63;;;18.05;63.46
57594;BME280;43423;46.510;6.686;2023-05-21T12:32:12;96007.97;;;18.11;63.81
57594;BME280;43423;46.510;6.686;2023-05-21T12:37:12;96006.78;;;18.06;63.47
57594;BME280;43423;46.510;6.686;2023-05-21T12:39:42;96016.94;;;18.17;63.79
57594;BME280;43423;46.510;6.686;2023-05-21T12:42:09;96003.13;;;18.11;63.71
57594;BME280;43423;46.510;6.686;2023-05-21T12:44:34;95997.59;;;17.98;63.68
57594;BME280;43423;46.510;6.686;2023-05-21T12:47:01;96007.25;;;17.97;64.70
57594;BME280;43423;46.510;6.686;2023-05-21T12:49:34;96006.16;;;18.00;64.36
57594;BME280;43423;46.510;6.686;2023-05-21T12:52:09;96010.09;;;18.05;65.24
57594;BME280;43423;46.510;6.686;2023-05-21T12:54:37;96011.94;;;18.02;63.31
57594;BME280;43423;46.510;6.686;2023-05-21T12:57:08;96011.84;;;17.95;64.00
57594;BME280;43423;46.510;6.686;2023-05-21T12:59:56;96001.13;;;17.99;64.17
57594;BME280;43423;46.510;6.686;2023-05-21T13:05:03;96008.66;;;18.25;63.22
57594;BME280;43423;46.510;6.686;2023-05-21T13:07:31;96011.56;;;18.40;63.81
57594;BME280;43423;46.510;6.686;2023-05-21T13:09:57;96016.06;;;18.43;63.56
57594;BME280;43423;46.510;6.686;2023-05-21T13:12:28;96008.47;;;18.44;63.08
57594;BME280;43423;46.510;6.686;2023-05-21T13:14:55;96011.06;;;18.62;62.29
57594;BME280;43423;46.510;6.686;2023-05-21T13:17:22;96012.41;;;18.48;64.09
57594;BME280;43423;46.510;6.686;2023-05-21T13:22:30;96010.09;;;18.39;64.76
57594;BME280;43423;46.510;6.686;2023-05-21T13:24:56;96010.34;;;18.28;64.76
57594;BME280;43423;46.510;6.686;2023-05-21T13:27:21;96005.63;;;18.36;63.90